This is the latest recevied weather packets stored in our database for station/object IZ5MJO-13. If no packets are shown the sender has not sent any weather packets the latest 1 day(s).
| Time | Temp. | Humidity | Pressure | Rain* | Wind** | Luminosity | Snow |
|---|---|---|---|---|---|---|---|
| 1777769924 | 13.33° C | 39% | 1009.9 hPa | - | - | - | - |
| 1777769024 | 13.33° C | 36% | 1010 hPa | - | - | - | - |
| 1777768124 | 13.89° C | 38% | 1010.1 hPa | - | - | - | - |
| 1777767224 | 13.89° C | 37% | 1010.2 hPa | - | - | - | - |
| 1777766324 | 13.89° C | 36% | 1010.2 hPa | - | - | - | - |
| 1777765659 | 15° C | 34% | 1010.7 hPa | - | - | - | - |
| 1777765423 | 13.89° C | 36% | 1010.3 hPa | - | - | - | - |
| 1777764523 | 14.44° C | 35% | 1010.3 hPa | - | - | - | - |
| 1777763623 | 14.44° C | 35% | 1010.5 hPa | - | - | - | - |
| 1777762722 | 14.44° C | 34% | 1010.6 hPa | - | - | - | - |
| 1777761822 | 15° C | 34% | 1010.6 hPa | - | - | - | - |
| 1777760922 | 15° C | 33% | 1010.5 hPa | - | - | - | - |
| 1777760022 | 15° C | 35% | 1010.5 hPa | - | - | - | - |
| 1777759121 | 15° C | 36% | 1010.6 hPa | - | - | - | - |
| 1777758221 | 15.56° C | 34% | 1010.6 hPa | - | - | - | - |
| 1777756420 | 15.56° C | 34% | 1010.6 hPa | - | - | - | - |
| 1777755520 | 15.56° C | 34% | 1010.6 hPa | - | - | - | - |
| 1777754620 | 15° C | 35% | 1010.8 hPa | - | - | - | - |
| 1777753720 | 15° C | 34% | 1010.7 hPa | - | - | - | - |
| 1777753262 | 15° C | 36% | 1010.8 hPa | - | - | - | - |
| 1777752828 | 15° C | 36% | 1010.8 hPa | - | - | - | - |
| 1777751927 | 15° C | 36% | 1010.9 hPa | - | - | - | - |
| 1777751382 | 15° C | 36% | 1010.9 hPa | - | - | - | - |
| 1777751027 | 15° C | 36% | 1010.9 hPa | - | - | - | - |
| 1777750963 | 15° C | 37% | 1010.8 hPa | - | - | - | - |
* Rain since midnight (hover to see other rain measurements)
** Current wind speed in m/s (hover to see current wind gust speed)